createdAt,value
2022-11-16T00:00:23.514Z,99.75
2022-11-16T00:02:52.197Z,99.67
2022-11-16T00:05:28.001Z,100.00
2022-11-16T00:07:57.879Z,100.00
2022-11-16T00:10:26.002Z,100.00
2022-11-16T00:12:54.124Z,100.00
2022-11-16T00:15:24.010Z,100.00
2022-11-16T00:17:52.479Z,100.00
2022-11-16T00:20:20.790Z,100.00
2022-11-16T00:22:49.963Z,100.00
2022-11-16T00:25:22.744Z,100.00
2022-11-16T00:28:02.123Z,100.00
2022-11-16T00:30:30.281Z,100.00
2022-11-16T00:33:06.936Z,100.00
2022-11-16T00:35:40.083Z,100.00
2022-11-16T00:38:08.748Z,100.00
2022-11-16T00:40:40.248Z,100.00
2022-11-16T00:43:08.640Z,100.00
2022-11-16T00:45:39.925Z,100.00
2022-11-16T00:48:08.111Z,100.00
2022-11-16T00:50:36.786Z,100.00
2022-11-16T00:53:06.957Z,100.00
2022-11-16T00:55:35.015Z,100.00
2022-11-16T00:58:04.333Z,100.00
2022-11-16T01:00:32.239Z,100.00
2022-11-16T01:03:02.658Z,100.00
2022-11-16T01:05:31.046Z,100.00
2022-11-16T01:07:59.189Z,99.83
2022-11-16T01:10:34.373Z,100.00
2022-11-16T01:13:06.982Z,100.00
2022-11-16T01:15:35.087Z,100.00
2022-11-16T01:18:03.213Z,100.00
2022-11-16T01:20:32.062Z,100.00
2022-11-16T01:23:00.193Z,100.00
2022-11-16T01:25:29.610Z,100.00
2022-11-16T01:27:57.890Z,100.00
2022-11-16T01:30:48.704Z,100.00
2022-11-16T01:33:16.822Z,100.00
2022-11-16T01:35:45.142Z,100.00
2022-11-16T01:38:15.622Z,100.00
2022-11-16T01:40:44.093Z,100.00
2022-11-16T01:43:20.682Z,100.00
2022-11-16T01:45:49.048Z,99.92
2022-11-16T01:48:24.943Z,99.98
2022-11-16T01:50:54.140Z,99.90
2022-11-16T01:53:22.502Z,100.00
2022-11-16T01:55:57.151Z,100.00
2022-11-16T01:58:30.921Z,100.00
2022-11-16T02:01:07.465Z,100.00
2022-11-16T02:03:45.385Z,99.74
2022-11-16T02:06:17.011Z,99.25
2022-11-16T02:09:34.877Z,99.93
2022-11-16T02:13:35.383Z,100.00
2022-11-16T02:16:52.643Z,100.00
2022-11-16T02:19:51.821Z,99.76
2022-11-16T02:22:27.796Z,99.46
2022-11-16T02:25:05.352Z,99.45
2022-11-16T02:27:52.780Z,99.31
2022-11-16T02:30:20.815Z,99.21
2022-11-16T02:32:59.224Z,99.81
2022-11-16T02:35:33.397Z,99.37
2022-11-16T02:38:09.951Z,99.69
2022-11-16T02:40:45.625Z,99.67
2022-11-16T02:43:32.648Z,99.95
2022-11-16T02:46:05.505Z,99.81
2022-11-16T02:48:39.384Z,99.84
2022-11-16T02:51:08.672Z,99.79
2022-11-16T02:53:42.742Z,99.26
2022-11-16T02:56:13.933Z,98.93
2022-11-16T02:58:42.804Z,99.34
2022-11-16T03:01:21.783Z,99.50
2022-11-16T03:03:53.048Z,99.34
2022-11-16T03:06:30.112Z,99.07
2022-11-16T03:09:15.362Z,99.67
2022-11-16T03:12:03.690Z,99.03
2022-11-16T03:14:47.248Z,99.75
2022-11-16T03:17:22.890Z,99.73
2022-11-16T03:20:02.515Z,99.60
2022-11-16T03:22:42.472Z,99.84
2022-11-16T03:25:14.632Z,100.00
2022-11-16T03:28:05.848Z,99.61
2022-11-16T03:30:47.903Z,100.00
2022-11-16T03:33:20.768Z,100.00
2022-11-16T03:36:06.859Z,100.00
2022-11-16T03:38:35.916Z,100.00
2022-11-16T03:41:07.442Z,100.00
2022-11-16T03:43:36.360Z,100.00
2022-11-16T03:46:05.989Z,100.00
2022-11-16T03:48:36.082Z,100.00
2022-11-16T03:51:13.673Z,100.00
2022-11-16T03:53:52.780Z,100.00
2022-11-16T03:56:21.192Z,100.00
2022-11-16T03:59:17.933Z,100.00
2022-11-16T04:01:46.780Z,100.00
2022-11-16T04:04:36.321Z,100.00
2022-11-16T04:07:26.817Z,100.00
2022-11-16T04:10:13.404Z,100.00
2022-11-16T04:13:02.263Z,100.00
2022-11-16T04:15:48.765Z,100.00
2022-11-16T04:18:35.460Z,100.00
2022-11-16T04:21:24.186Z,100.00
2022-11-16T04:24:10.204Z,100.00
2022-11-16T04:26:57.436Z,100.00
2022-11-16T04:29:25.657Z,100.00
2022-11-16T04:32:12.214Z,100.00
2022-11-16T04:34:58.668Z,100.00
2022-11-16T04:37:45.623Z,100.00
2022-11-16T04:40:16.695Z,100.00
2022-11-16T04:43:00.361Z,100.00
2022-11-16T04:45:51.266Z,100.00
2022-11-16T04:48:21.688Z,100.00
2022-11-16T04:50:53.511Z,100.00
2022-11-16T04:53:25.148Z,100.00
2022-11-16T04:56:01.196Z,100.00
2022-11-16T04:58:31.463Z,100.00
2022-11-16T05:01:00.392Z,100.00
2022-11-16T05:03:32.659Z,100.00
2022-11-16T05:06:04.089Z,100.00
2022-11-16T05:08:33.339Z,100.00
2022-11-16T05:11:01.987Z,100.00
2022-11-16T05:13:30.653Z,100.00
2022-11-16T05:16:01.677Z,100.00
2022-11-16T09:14:59.345Z,96.31
2022-11-16T09:17:28.007Z,95.99
2022-11-16T09:19:57.064Z,95.80
2022-11-16T09:22:25.997Z,95.66
2022-11-16T09:24:58.278Z,95.07
2022-11-16T09:27:30.755Z,95.57
2022-11-16T09:30:02.329Z,95.06
2022-11-16T09:32:30.527Z,94.93
2022-11-16T09:35:02.118Z,94.65
2022-11-16T09:37:43.394Z,95.16
2022-11-16T09:40:14.514Z,95.90
2022-11-16T09:43:07.157Z,96.20
2022-11-16T09:45:38.421Z,96.42
2022-11-16T09:48:17.854Z,95.73
2022-11-16T09:51:25.308Z,95.67
2022-11-16T09:54:08.394Z,94.91
2022-11-16T09:56:48.025Z,94.67
2022-11-16T09:59:26.651Z,94.79
2022-11-16T10:02:21.484Z,94.16
2022-11-16T10:05:12.892Z,94.07
2022-11-16T10:07:50.859Z,93.48
2022-11-16T10:10:45.397Z,92.76
2022-11-16T10:13:43.656Z,93.77
2022-11-16T10:16:46.859Z,93.32
2022-11-16T10:21:16.762Z,93.84
2022-11-16T10:24:32.477Z,93.41
2022-11-16T10:28:12.084Z,93.01
2022-11-16T10:31:42.565Z,93.28
2022-11-16T10:38:34.611Z,92.35
2022-11-16T10:41:39.362Z,92.69
2022-11-16T10:44:44.520Z,93.25
2022-11-16T10:47:23.414Z,93.48
2022-11-16T10:50:05.387Z,93.07
2022-11-16T10:54:00.950Z,93.60
2022-11-16T10:57:00.980Z,94.21
2022-11-16T10:59:48.707Z,94.92
2022-11-16T11:02:38.014Z,94.91
2022-11-16T11:05:25.967Z,95.93
2022-11-16T11:08:12.532Z,94.95
2022-11-16T11:10:56.678Z,94.88
2022-11-16T11:13:30.153Z,94.49
2022-11-16T11:16:17.914Z,94.63
2022-11-16T11:18:57.521Z,93.98
2022-11-16T11:21:26.099Z,95.62
2022-11-16T11:24:10.596Z,95.55
2022-11-16T11:26:51.314Z,95.44
2022-11-16T11:29:27.800Z,95.13
2022-11-16T11:32:06.020Z,95.62
2022-11-16T11:34:40.328Z,95.21
2022-11-16T11:37:21.129Z,94.77
2022-11-16T11:40:04.837Z,95.83
2022-11-16T11:42:34.011Z,96.53
2022-11-16T11:45:13.693Z,95.51
2022-11-16T11:48:15.312Z,95.40
2022-11-16T11:51:17.071Z,95.21
2022-11-16T11:53:58.638Z,94.93
2022-11-16T11:56:39.011Z,94.65
2022-11-16T11:59:14.072Z,95.43
2022-11-16T12:02:19.639Z,95.01
2022-11-16T12:05:15.835Z,94.83
2022-11-16T12:07:52.563Z,95.11
2022-11-16T12:10:28.147Z,94.75
2022-11-16T12:13:27.660Z,95.25
2022-11-16T12:16:18.105Z,95.37
2022-11-16T12:19:13.155Z,95.49
2022-11-16T12:22:06.150Z,95.71
2022-11-16T12:24:46.068Z,95.79
2022-11-16T12:27:50.541Z,97.13
2022-11-16T12:30:26.569Z,97.62
2022-11-16T12:33:13.742Z,96.52
2022-11-16T12:35:55.001Z,96.93
2022-11-16T12:38:42.168Z,97.91
2022-11-16T12:41:35.759Z,97.32
2022-11-16T12:44:12.094Z,98.37
2022-11-16T12:47:13.195Z,98.47
2022-11-16T12:50:35.439Z,97.89
2022-11-16T12:53:22.007Z,98.44
2022-11-16T12:55:59.210Z,98.34
2022-11-16T12:58:53.057Z,98.38
2022-11-16T13:01:30.993Z,98.57
2022-11-16T13:04:06.615Z,98.78
2022-11-16T13:06:41.632Z,98.84
2022-11-16T13:09:16.697Z,98.83
2022-11-16T13:11:56.274Z,99.27
2022-11-16T13:14:29.603Z,98.81
2022-11-16T13:16:58.712Z,99.36
2022-11-16T13:19:32.496Z,99.21
2022-11-16T13:22:08.003Z,99.78
2022-11-16T13:24:59.057Z,99.69
2022-11-16T13:27:39.865Z,99.88
2022-11-16T13:30:23.936Z,100.00
2022-11-16T13:33:14.612Z,100.00
2022-11-16T13:35:43.164Z,100.00
2022-11-16T13:38:14.690Z,100.00
2022-11-16T13:40:46.046Z,100.00
2022-11-16T13:43:17.794Z,100.00
2022-11-16T13:46:00.059Z,100.00
2022-11-16T13:48:38.429Z,100.00
2022-11-16T13:51:11.155Z,100.00
2022-11-16T13:56:49.228Z,100.00
2022-11-16T13:59:17.488Z,100.00
2022-11-16T14:01:59.604Z,100.00
2022-11-16T14:04:42.275Z,100.00
2022-11-16T14:07:37.302Z,100.00
2022-11-16T14:10:06.231Z,100.00
2022-11-16T17:00:50.527Z,100.00
2022-11-16T17:03:20.812Z,100.00
2022-11-16T17:05:49.247Z,100.00
2022-11-16T17:08:17.096Z,100.00
2022-11-16T17:10:45.242Z,100.00
2022-11-16T17:13:13.353Z,100.00
2022-11-16T17:22:56.473Z,100.00
2022-11-16T17:25:28.307Z,100.00
2022-11-16T17:27:56.377Z,100.00
2022-11-16T17:30:24.017Z,100.00
2022-11-16T17:32:51.871Z,100.00
2022-11-16T17:35:19.656Z,100.00
2022-11-16T17:37:48.812Z,100.00
2022-11-16T17:40:17.912Z,100.00
2022-11-16T17:42:46.301Z,100.00
2022-11-16T17:45:14.089Z,100.00
2022-11-16T17:47:42.100Z,100.00
2022-11-16T17:50:10.256Z,100.00
2022-11-16T17:52:41.076Z,100.00
2022-11-16T17:55:09.309Z,100.00
2022-11-16T17:57:36.968Z,100.00
2022-11-16T18:00:05.232Z,100.00
2022-11-16T18:02:36.093Z,100.00
2022-11-16T18:05:03.915Z,100.00
2022-11-16T18:07:33.703Z,100.00
2022-11-16T18:10:01.671Z,100.00
2022-11-16T18:12:29.593Z,100.00
2022-11-16T18:15:26.471Z,100.00
2022-11-16T18:17:46.734Z,100.00
2022-11-16T18:20:14.567Z,100.00
2022-11-16T18:22:42.347Z,100.00
2022-11-16T18:25:10.013Z,100.00
2022-11-16T18:27:38.073Z,100.00
2022-11-16T18:30:07.673Z,100.00
2022-11-16T18:32:37.218Z,100.00
2022-11-16T18:35:10.126Z,100.00
2022-11-16T18:37:39.255Z,100.00
2022-11-16T18:40:08.392Z,100.00
2022-11-16T18:42:36.942Z,100.00
2022-11-16T18:45:05.085Z,100.00
2022-11-16T18:47:35.333Z,100.00
2022-11-16T18:50:03.146Z,100.00
2022-11-16T18:52:31.289Z,100.00
2022-11-16T18:54:59.062Z,100.00
2022-11-16T18:57:27.447Z,100.00
2022-11-16T18:59:55.210Z,100.00
2022-11-16T19:02:23.264Z,100.00
2022-11-16T19:04:51.530Z,100.00
2022-11-16T19:07:19.864Z,100.00
2022-11-16T19:09:47.987Z,100.00
2022-11-16T19:12:15.868Z,100.00
2022-11-16T19:14:43.747Z,100.00
2022-11-16T19:17:11.549Z,100.00
2022-11-16T19:19:40.820Z,100.00
2022-11-16T19:22:08.908Z,100.00
2022-11-16T19:24:37.481Z,100.00
2022-11-16T19:27:05.402Z,100.00
2022-11-16T19:29:33.314Z,100.00
2022-11-16T19:32:01.117Z,100.00
2022-11-16T19:34:33.322Z,100.00
2022-11-16T19:37:01.481Z,100.00
2022-11-16T19:39:29.395Z,100.00
2022-11-16T19:41:57.260Z,100.00
2022-11-16T19:44:25.174Z,100.00
2022-11-16T19:46:54.716Z,100.00
2022-11-16T19:49:22.711Z,100.00
2022-11-16T19:51:50.571Z,100.00
2022-11-16T19:54:19.816Z,100.00
2022-11-16T19:56:54.673Z,100.00
2022-11-16T19:59:23.065Z,100.00
2022-11-16T20:01:51.118Z,100.00
2022-11-16T20:04:19.104Z,100.00
2022-11-16T20:06:47.566Z,100.00
2022-11-16T20:09:15.720Z,100.00
2022-11-16T20:11:45.965Z,100.00
2022-11-16T20:14:15.151Z,100.00
2022-11-16T20:16:46.670Z,100.00
2022-11-16T20:19:15.339Z,100.00
2022-11-16T20:21:43.360Z,100.00
2022-11-16T20:24:12.911Z,100.00
2022-11-16T20:26:42.691Z,100.00
2022-11-16T20:29:12.507Z,100.00
2022-11-16T20:31:43.049Z,100.00
2022-11-16T20:34:15.727Z,100.00
2022-11-16T20:36:47.323Z,100.00
2022-11-16T20:39:16.338Z,100.00
2022-11-16T20:41:44.960Z,100.00
2022-11-16T20:44:16.640Z,100.00
2022-11-16T20:46:45.370Z,100.00
2022-11-16T20:49:13.434Z,100.00
2022-11-16T20:51:42.135Z,100.00
2022-11-16T20:54:10.336Z,100.00
2022-11-16T20:56:38.180Z,100.00
2022-11-16T20:59:06.184Z,100.00
2022-11-16T21:01:34.094Z,100.00
2022-11-16T21:04:04.126Z,100.00
2022-11-16T21:06:32.853Z,100.00
2022-11-16T21:09:00.919Z,100.00
2022-11-16T21:11:30.240Z,100.00
2022-11-16T21:14:16.605Z,100.00
2022-11-16T21:16:44.625Z,100.00
2022-11-16T21:19:12.784Z,100.00
2022-11-16T21:21:41.477Z,100.00
2022-11-16T21:24:09.670Z,100.00
2022-11-16T21:26:37.695Z,100.00
2022-11-16T21:29:05.733Z,100.00
2022-11-16T21:31:34.978Z,100.00
2022-11-16T21:34:02.808Z,100.00
2022-11-16T21:36:31.449Z,100.00
2022-11-16T21:38:59.595Z,100.00
2022-11-16T21:41:30.622Z,100.00
2022-11-16T21:43:58.377Z,100.00
2022-11-16T21:46:26.599Z,100.00
2022-11-16T21:48:56.745Z,100.00
2022-11-16T21:51:44.069Z,100.00
2022-11-16T21:54:11.815Z,100.00
2022-11-16T21:56:40.780Z,100.00
2022-11-16T21:59:08.460Z,100.00
2022-11-16T22:01:59.497Z,100.00
2022-11-16T22:04:47.130Z,100.00
2022-11-16T22:07:34.154Z,100.00
2022-11-16T22:10:03.039Z,100.00
2022-11-16T22:12:30.832Z,100.00
2022-11-16T22:14:58.927Z,100.00
2022-11-16T22:17:28.885Z,100.00
2022-11-16T22:20:00.462Z,100.00
2022-11-16T22:22:28.303Z,100.00
2022-11-16T22:24:56.373Z,100.00
2022-11-16T22:27:24.399Z,100.00
2022-11-16T22:29:52.604Z,100.00
2022-11-16T22:32:20.258Z,100.00
2022-11-16T22:34:48.417Z,100.00
2022-11-16T22:37:16.177Z,100.00
2022-11-16T22:39:44.409Z,100.00
2022-11-16T22:42:12.207Z,100.00
2022-11-16T22:44:40.474Z,100.00
2022-11-16T22:47:09.622Z,100.00
2022-11-16T22:49:37.626Z,100.00
2022-11-16T22:52:05.597Z,100.00
2022-11-16T22:54:37.974Z,100.00
2022-11-16T22:57:30.494Z,100.00
2022-11-16T22:59:58.264Z,100.00
2022-11-16T23:02:26.298Z,100.00
2022-11-16T23:04:54.106Z,100.00
